Time;durP1;ratioP1;P1;durP2;ratioP2;P2;SDS_P1;SDS_P2;PMS_P1;PMS_P2;Temp;Humidity;BMP_temperature;BMP_pressure;BME280_temperature;BME280_humidity;BME280_pressure;Samples;Min_cycle;Max_cycle;Signal;HPM_P1;HPM_P2
2023/09/26 00:01:36;;;;;;;;;;;8.90;99.90;;;8.84;100.00;101156.50;4973637;28;19981;-82
2023/09/26 00:04:03;;;;;;;;;;;8.70;99.90;;;8.67;100.00;101167.59;4979949;28;19950;-82
2023/09/26 00:06:29;;;;;;;;;;;8.50;99.90;;;8.59;100.00;101184.88;4974632;28;19977;-82
2023/09/26 00:08:55;;;;;;;;;;;8.40;99.90;;;8.56;100.00;101187.13;4973171;28;19929;-82
2023/09/26 00:11:24;;;;;;;;;;;8.30;99.90;;;8.60;100.00;101172.13;4973228;28;19918;-82
2023/09/26 00:13:50;;;;;;;;;;;8.40;99.90;;;8.65;100.00;101163.41;4972938;28;19925;-81
2023/09/26 00:16:15;;;;;;;;;;;8.40;99.90;;;8.71;100.00;101151.75;4961547;28;20370;-81
2023/09/26 00:18:42;;;;;;;;;;;8.40;99.90;;;8.77;100.00;101140.09;4972869;28;19925;-81
2023/09/26 00:21:10;;;;;;;;;;;8.60;99.90;;;8.80;100.00;101122.53;4972810;28;19981;-82
2023/09/26 00:23:36;;;;;;;;;;;8.60;99.90;;;8.80;100.00;101115.22;4972435;28;19918;-82
2023/09/26 00:26:04;;;;;;;;;;;8.60;99.90;;;8.90;100.00;101113.03;4972081;28;19933;-82
2023/09/26 00:28:30;;;;;;;;;;;8.70;99.90;;;8.96;100.00;101108.66;4955471;28;19984;-82
2023/09/26 00:30:59;;;;;;;;;;;8.80;99.90;;;8.98;100.00;101098.44;4954574;28;19968;-82
2023/09/26 00:33:24;;;;;;;;;;;8.80;99.90;;;8.94;100.00;101086.25;4938250;28;19922;-82
2023/09/26 00:35:50;;;;;;;;;;;8.80;99.90;;;8.91;100.00;101084.78;4954386;28;20298;-82
2023/09/26 00:38:16;;;;;;;;;;;8.80;99.90;;;8.96;100.00;101088.78;4971342;28;20313;-82
2023/09/26 00:40:42;;;;;;;;;;;8.80;99.90;;;8.93;100.00;101079.13;4941988;29;20015;-82
2023/09/26 00:43:09;;;;;;;;;;;8.80;99.90;;;8.89;100.00;101073.25;4965121;28;19965;-82
2023/09/26 00:45:35;;;;;;;;;;;8.80;99.90;;;8.91;100.00;101065.72;4971582;28;19922;-82
2023/09/26 00:48:01;;;;;;;;;;;8.80;99.90;;;8.80;100.00;101057.25;4954092;28;20025;-82
2023/09/26 00:50:27;;;;;;;;;;;8.60;99.90;;;8.74;100.00;101065.13;4956462;28;20346;-82
2023/09/26 00:52:53;;;;;;;;;;;8.50;99.90;;;8.68;100.00;101074.06;4976496;28;19929;-82
2023/09/26 00:55:22;;;;;;;;;;;8.50;99.90;;;8.58;100.00;101084.44;4935193;28;19921;-81
2023/09/26 00:57:48;;;;;;;;;;;8.40;99.90;;;8.39;100.00;101080.44;4934448;29;19937;-82
2023/09/26 01:00:18;;;;;;;;;;;8.30;99.90;;;8.32;100.00;101099.38;4970631;28;20024;-82
2023/09/26 01:02:44;;;;;;;;;;;8.10;99.90;;;8.27;100.00;101099.13;4957942;28;20012;-82
2023/09/26 01:05:10;;;;;;;;;;;8.10;99.90;;;8.29;100.00;101099.78;4971430;28;20038;-81
2023/09/26 01:07:35;;;;;;;;;;;8.10;99.90;;;8.32;100.00;101083.91;4971308;28;20419;-82
2023/09/26 01:10:08;;;;;;;;;;;8.10;99.90;;;8.48;100.00;101071.13;4971405;28;19926;-82
2023/09/26 01:12:35;;;;;;;;;;;8.30;99.90;;;8.55;100.00;101060.34;4967620;28;19957;-82
2023/09/26 01:15:01;;;;;;;;;;;8.40;99.90;;;8.65;100.00;101052.72;4960630;28;19957;-83
2023/09/26 01:17:31;;;;;;;;;;;8.50;99.90;;;8.68;100.00;101049.59;4970752;28;19964;-82
2023/09/26 01:19:57;;;;;;;;;;;8.50;99.90;;;8.70;100.00;101035.81;4948945;28;20416;-83
2023/09/26 01:22:27;;;;;;;;;;;8.60;99.90;;;8.72;100.00;101039.19;4970858;28;19940;-83
2023/09/26 01:24:53;;;;;;;;;;;8.50;99.90;;;8.67;100.00;101041.66;4945507;28;20452;-83
2023/09/26 01:27:18;;;;;;;;;;;8.50;99.90;;;8.59;100.00;101040.72;4954384;28;19914;-83
2023/09/26 01:29:47;;;;;;;;;;;8.40;99.90;;;8.44;100.00;101042.63;4954406;28;19922;-83
2023/09/26 01:32:13;;;;;;;;;;;8.30;99.90;;;8.42;100.00;101045.53;4971625;28;20004;-83
2023/09/26 01:34:39;;;;;;;;;;;8.20;99.90;;;8.40;100.00;101046.78;4970162;28;20398;-83
2023/09/26 01:37:05;;;;;;;;;;;8.20;99.90;;;8.33;100.00;101041.25;4953770;28;20407;-83
2023/09/26 01:39:30;;;;;;;;;;;8.20;99.90;;;8.38;100.00;101046.97;4953449;28;19914;-83
2023/09/26 01:41:56;;;;;;;;;;;8.20;99.90;;;8.33;100.00;101036.66;4943675;28;19969;-83
2023/09/26 01:44:22;;;;;;;;;;;8.20;99.90;;;8.26;100.00;101038.47;4969772;28;19973;-83
2023/09/26 01:46:48;;;;;;;;;;;8.10;99.90;;;8.19;100.00;101049.25;4942457;29;19974;-84
2023/09/26 01:49:13;;;;;;;;;;;8.00;99.90;;;8.08;100.00;101052.47;4938780;28;19926;-83
2023/09/26 01:51:39;;;;;;;;;;;7.90;99.90;;;7.93;100.00;101057.94;4941277;28;20479;-83
2023/09/26 01:54:05;;;;;;;;;;;7.70;99.90;;;7.84;100.00;101064.50;4937670;28;19964;-83
2023/09/26 01:56:32;;;;;;;;;;;7.60;99.90;;;7.70;100.00;101071.63;4970230;28;19918;-83
2023/09/26 01:58:57;;;;;;;;;;;7.50;99.90;;;7.67;100.00;101074.69;4972195;28;19922;-83
2023/09/26 02:01:25;;;;;;;;;;;7.40;99.90;;;7.60;100.00;101097.19;4969082;28;19925;-83
2023/09/26 02:03:51;;;;;;;;;;;7.30;99.90;;;7.63;100.00;101085.13;4971822;28;19922;-82
2023/09/26 02:06:16;;;;;;;;;;;7.30;99.90;;;7.69;100.00;101072.63;4971281;28;20068;-82
2023/09/26 02:08:42;;;;;;;;;;;7.50;99.90;;;7.73;100.00;101057.69;4950053;28;20468;-83
2023/09/26 02:11:08;;;;;;;;;;;7.60;99.90;;;7.84;100.00;101059.91;4954072;28;19953;-82
2023/09/26 02:13:33;;;;;;;;;;;7.60;99.90;;;7.81;100.00;101063.00;4953236;28;19965;-82
2023/09/26 02:16:00;;;;;;;;;;;7.60;99.90;;;7.83;100.00;101062.84;4975023;28;19918;-82
2023/09/26 02:18:26;;;;;;;;;;;7.60;99.90;;;7.88;100.00;101053.06;4970765;28;19918;-82
2023/09/26 02:20:52;;;;;;;;;;;7.60;99.90;;;7.87;100.00;101042.41;4969356;28;19973;-82
2023/09/26 02:23:19;;;;;;;;;;;7.60;99.90;;;7.97;100.00;101031.25;4969403;28;19924;-82
2023/09/26 02:25:52;;;;;;;;;;;7.70;99.90;;;8.04;100.00;101034.88;4953644;28;20370;-82
2023/09/26 02:28:18;;;;;;;;;;;7.80;99.90;;;8.08;100.00;101025.31;4971034;28;19925;-82
2023/09/26 02:30:44;;;;;;;;;;;7.80;99.90;;;8.06;100.00;101021.94;4969254;28;19918;-82
2023/09/26 02:33:10;;;;;;;;;;;7.80;99.90;;;8.05;100.00;101015.66;4970960;28;19925;-81
2023/09/26 02:35:35;;;;;;;;;;;7.80;99.90;;;7.94;100.00;101018.00;4970720;28;19943;-82
2023/09/26 02:38:02;;;;;;;;;;;7.70;99.90;;;7.96;100.00;101032.28;4970749;28;19956;-82
2023/09/26 02:40:27;;;;;;;;;;;7.70;99.90;;;7.90;100.00;101042.84;4946714;29;19918;-82
2023/09/26 02:42:54;;;;;;;;;;;7.60;99.90;;;7.84;100.00;101054.47;4970687;28;19974;-82
2023/09/26 02:45:20;;;;;;;;;;;7.50;99.90;;;7.84;100.00;101042.78;4973211;28;19925;-82
2023/09/26 02:47:46;;;;;;;;;;;7.50;99.90;;;7.88;100.00;101039.47;4970754;28;19918;-82
2023/09/26 02:50:12;;;;;;;;;;;7.50;99.90;;;7.75;100.00;101042.88;4972389;28;20787;-81
2023/09/26 02:52:42;;;;;;;;;;;7.40;99.90;;;7.75;100.00;101053.72;4973346;28;19931;-82
2023/09/26 02:55:09;;;;;;;;;;;7.40;99.90;;;7.79;100.00;101048.78;4955198;28;19918;-82
2023/09/26 02:57:34;;;;;;;;;;;7.60;99.90;;;7.80;100.00;101052.31;4971023;28;19953;-83
2023/09/26 03:00:11;;;;;;;;;;;7.50;99.90;;;7.84;100.00;101049.03;4974139;28;19918;-83
2023/09/26 03:02:36;;;;;;;;;;;7.50;99.90;;;7.89;100.00;101027.56;4970950;28;20005;-81
2023/09/26 03:05:02;;;;;;;;;;;7.60;99.90;;;7.96;100.00;101027.66;4955654;28;19922;-82
2023/09/26 03:07:28;;;;;;;;;;;7.70;99.90;;;7.82;100.00;101026.66;4972825;28;20385;-82
2023/09/26 03:09:54;;;;;;;;;;;7.70;99.90;;;7.61;100.00;101049.16;4953344;29;19925;-81
2023/09/26 03:12:20;;;;;;;;;;;7.40;99.90;;;7.42;100.00;101064.09;4943248;28;19925;-83
2023/09/26 03:14:45;;;;;;;;;;;7.20;99.90;;;7.24;100.00;101070.75;4971438;28;19917;-83
2023/09/26 03:17:11;;;;;;;;;;;7.00;99.90;;;7.05;100.00;101066.69;4972436;28;19953;-82
2023/09/26 03:19:37;;;;;;;;;;;6.80;99.90;;;6.98;100.00;101082.00;4949809;28;19918;-82
2023/09/26 03:22:03;;;;;;;;;;;6.70;99.90;;;6.92;100.00;101078.16;4973826;28;19977;-83
2023/09/26 03:24:29;;;;;;;;;;;6.70;99.90;;;6.94;100.00;101081.53;4973813;28;19933;-82
2023/09/26 03:26:54;;;;;;;;;;;6.70;99.90;;;6.97;100.00;101078.44;4973592;28;19932;-82
2023/09/26 03:29:20;;;;;;;;;;;6.70;99.90;;;6.98;100.00;101071.13;4972110;28;19918;-82
2023/09/26 03:31:48;;;;;;;;;;;6.70;99.90;;;7.00;100.00;101066.38;4956004;28;19981;-82
2023/09/26 03:34:13;;;;;;;;;;;6.70;99.90;;;7.18;100.00;101071.50;4973590;28;19918;-82
2023/09/26 03:36:40;;;;;;;;;;;6.80;99.90;;;7.28;100.00;101049.50;4939806;28;20001;-82
2023/09/26 03:39:05;;;;;;;;;;;7.00;99.90;;;7.52;100.00;101042.97;4972529;28;19925;-82
2023/09/26 03:41:34;;;;;;;;;;;7.20;99.90;;;7.54;100.00;101021.91;4956005;28;20021;-83
2023/09/26 03:43:59;;;;;;;;;;;7.30;99.90;;;7.52;100.00;101023.97;4973118;28;19918;-83
2023/09/26 03:46:25;;;;;;;;;;;7.30;99.90;;;7.49;100.00;101044.19;4973032;28;19937;-83
2023/09/26 03:48:51;;;;;;;;;;;7.20;99.90;;;7.36;100.00;101057.56;4972595;28;19924;-82
2023/09/26 03:51:17;;;;;;;;;;;7.10;99.90;;;7.25;100.00;101072.44;4973658;28;19942;-82
2023/09/26 03:53:43;;;;;;;;;;;6.90;99.90;;;7.15;100.00;101078.13;4972783;28;19925;-83
2023/09/26 03:56:09;;;;;;;;;;;6.80;99.90;;;7.00;100.00;101091.66;4969621;28;20355;-82
2023/09/26 03:58:39;;;;;;;;;;;6.70;99.90;;;7.00;100.00;101088.06;4971793;28;19921;-83
2023/09/26 04:01:13;;;;;;;;;;;6.60;99.90;;;6.94;100.00;101089.66;4971223;28;20654;-82
2023/09/26 04:03:40;;;;;;;;;;;6.60;99.90;;;6.92;100.00;101094.44;4946536;28;19965;-83
2023/09/26 04:06:06;;;;;;;;;;;6.60;99.90;;;6.90;100.00;101091.88;4973551;28;20125;-81
2023/09/26 04:08:32;;;;;;;;;;;6.60;99.90;;;6.87;100.00;101083.25;4972495;28;19956;-81
2023/09/26 04:10:58;;;;;;;;;;;6.60;99.90;;;6.85;100.00;101077.16;4951032;28;19930;-81
2023/09/26 04:13:24;;;;;;;;;;;6.60;99.90;;;6.84;100.00;101067.34;4972647;28;19938;-81
2023/09/26 04:15:50;;;;;;;;;;;6.60;99.90;;;6.87;100.00;101070.56;4972459;28;20305;-81
2023/09/26 04:18:16;;;;;;;;;;;6.60;99.90;;;6.81;100.00;101062.28;4972567;28;19961;-81
2023/09/26 04:20:43;;;;;;;;;;;6.50;99.90;;;6.76;100.00;101069.09;4972876;28;19950;-81
2023/09/26 04:23:08;;;;;;;;;;;6.40;99.90;;;6.80;100.00;101052.47;4972375;28;20012;-81
2023/09/26 04:25:35;;;;;;;;;;;6.50;99.90;;;6.88;100.00;101055.09;4971834;28;19976;-81
2023/09/26 04:28:01;;;;;;;;;;;6.50;99.90;;;6.88;100.00;101052.41;4972473;28;19920;-83
2023/09/26 04:30:27;;;;;;;;;;;6.60;99.90;;;6.89;100.00;101054.09;4971961;28;19926;-82
2023/09/26 04:32:52;;;;;;;;;;;6.60;99.90;;;6.82;100.00;101039.56;4970984;28;19950;-83
2023/09/26 04:35:18;;;;;;;;;;;6.60;99.90;;;6.90;100.00;101045.78;4971728;28;20543;-86
2023/09/26 04:37:44;;;;;;;;;;;6.60;99.90;;;6.94;100.00;101043.56;4974821;28;20297;-88
2023/09/26 04:40:10;;;;;;;;;;;6.70;99.90;;;7.04;100.00;101027.84;4972776;28;19950;-86
2023/09/26 04:42:41;;;;;;;;;;;6.70;99.90;;;7.05;100.00;101015.97;4943753;28;19918;-89
2023/09/26 04:45:07;;;;;;;;;;;6.80;99.90;;;6.99;100.00;101013.13;4975273;28;19918;-84
2023/09/26 04:47:32;;;;;;;;;;;6.80;99.90;;;6.98;100.00;101020.44;4974800;28;19998;-87
2023/09/26 04:49:58;;;;;;;;;;;6.70;99.90;;;6.94;100.00;101021.84;4981447;28;19929;-86
2023/09/26 04:52:24;;;;;;;;;;;6.70;99.90;;;6.92;100.00;101013.06;4973185;28;19940;-86
2023/09/26 04:54:50;;;;;;;;;;;6.60;99.90;;;6.94;100.00;101012.84;4973166;28;19941;-85
2023/09/26 04:57:16;;;;;;;;;;;6.60;99.90;;;6.78;100.00;101003.00;4950629;28;19925;-86
2023/09/26 04:59:41;;;;;;;;;;;6.50;99.90;;;6.83;100.00;101019.56;4969714;28;19918;-86
2023/09/26 05:02:07;;;;;;;;;;;6.50;99.90;;;6.74;100.00;101008.78;4949969;28;19925;-87
2023/09/26 05:04:33;;;;;;;;;;;6.50;99.90;;;6.72;100.00;101007.28;4972934;28;19925;-86
2023/09/26 05:06:58;;;;;;;;;;;6.40;99.90;;;6.73;100.00;101008.97;4945595;28;19918;-87
2023/09/26 05:09:24;;;;;;;;;;;6.40;99.90;;;6.66;100.00;101013.44;4952938;28;20012;-86
2023/09/26 05:11:49;;;;;;;;;;;6.40;99.90;;;6.64;100.00;101016.34;4951205;28;19973;-86
2023/09/26 05:14:15;;;;;;;;;;;6.40;99.90;;;6.69;100.00;101024.78;4978132;28;19918;-86
2023/09/26 05:16:41;;;;;;;;;;;6.40;99.90;;;6.80;100.00;101019.94;4959322;28;19922;-85
2023/09/26 05:19:06;;;;;;;;;;;6.50;99.90;;;6.94;100.00;101005.56;4970356;28;20398;-87
2023/09/26 05:21:32;;;;;;;;;;;6.60;99.90;;;7.03;100.00;100993.59;4972582;28;19922;-87
2023/09/26 05:23:58;;;;;;;;;;;6.70;99.90;;;6.96;100.00;100995.38;4964700;28;19925;-85
2023/09/26 05:26:24;;;;;;;;;;;6.70;99.90;;;6.97;100.00;100997.06;4947231;28;19925;-87
2023/09/26 05:28:50;;;;;;;;;;;6.60;99.90;;;7.01;100.00;100981.25;4978458;28;19922;-88
2023/09/26 05:31:17;;;;;;;;;;;6.80;99.90;;;7.22;100.00;100988.69;4975679;28;19925;-88
2023/09/26 05:33:44;;;;;;;;;;;6.90;99.90;;;7.34;100.00;100986.34;4955897;28;19925;-88
2023/09/26 05:36:09;;;;;;;;;;;7.10;99.90;;;7.32;100.00;100983.81;4973948;28;20290;-85
2023/09/26 05:38:35;;;;;;;;;;;7.10;99.90;;;7.38;100.00;100973.22;4971669;28;19918;-84
2023/09/26 05:41:01;;;;;;;;;;;7.20;99.90;;;7.56;100.00;100968.25;4953477;28;20019;-87
2023/09/26 05:43:28;;;;;;;;;;;7.30;99.90;;;7.74;100.00;100969.75;4949885;28;19918;-86
2023/09/26 05:45:53;;;;;;;;;;;7.50;99.90;;;7.83;100.00;100955.00;4957780;28;19961;-88
2023/09/26 05:48:19;;;;;;;;;;;7.70;99.90;;;7.95;100.00;100940.91;4952451;28;19925;-84
2023/09/26 05:50:45;;;;;;;;;;;7.80;99.90;;;8.01;100.00;100948.31;4965392;28;19918;-84
2023/09/26 05:53:12;;;;;;;;;;;7.80;99.90;;;7.98;100.00;100940.56;4951358;28;20350;-86
2023/09/26 05:55:38;;;;;;;;;;;7.80;99.90;;;8.07;100.00;100950.25;4970461;28;19958;-84
2023/09/26 05:58:04;;;;;;;;;;;7.80;99.90;;;8.09;100.00;100942.75;4965001;28;19918;-84
2023/09/26 06:00:30;;;;;;;;;;;7.90;99.90;;;8.23;100.00;100948.34;4948939;28;20382;-83
2023/09/26 06:02:55;;;;;;;;;;;8.00;99.90;;;8.30;100.00;100939.19;4972164;28;19926;-84
2023/09/26 06:05:21;;;;;;;;;;;8.10;99.90;;;8.37;100.00;100933.81;4970988;28;19918;-83
2023/09/26 06:07:47;;;;;;;;;;;8.20;99.90;;;8.46;100.00;100938.06;4971401;28;20100;-85
2023/09/26 06:10:14;;;;;;;;;;;8.20;99.90;;;8.43;100.00;100915.88;4971644;28;20444;-84
2023/09/26 06:12:40;;;;;;;;;;;8.30;99.90;;;8.54;100.00;100928.97;4970185;28;19996;-83
2023/09/26 06:15:07;;;;;;;;;;;8.30;99.90;;;8.61;100.00;100929.03;4969943;28;19922;-82
2023/09/26 06:17:33;;;;;;;;;;;8.30;99.90;;;8.66;100.00;100929.28;4943049;28;19965;-85
2023/09/26 06:19:59;;;;;;;;;;;8.40;99.90;;;8.79;100.00;100914.94;4952387;28;19917;-84
2023/09/26 06:22:25;;;;;;;;;;;8.60;99.90;;;8.94;100.00;100898.50;4970522;28;20263;-85
2023/09/26 06:24:50;;;;;;;;;;;8.70;99.90;;;9.14;100.00;100895.06;4971614;28;19918;-86
2023/09/26 06:27:16;;;;;;;;;;;8.90;99.90;;;9.22;100.00;100886.72;4970848;28;19918;-84
2023/09/26 06:29:42;;;;;;;;;;;9.00;99.90;;;9.43;100.00;100883.06;4947313;28;20009;-83
2023/09/26 06:32:08;;;;;;;;;;;9.10;99.90;;;9.55;100.00;100883.31;4974677;28;19930;-86
2023/09/26 06:34:35;;;;;;;;;;;9.30;99.90;;;9.61;100.00;100870.72;4973866;28;20603;-84
2023/09/26 06:37:02;;;;;;;;;;;9.40;99.90;;;9.76;100.00;100868.69;4973614;28;19929;-80
2023/09/26 06:39:28;;;;;;;;;;;9.50;99.90;;;9.90;100.00;100865.97;4957763;28;20008;-85
2023/09/26 06:41:53;;;;;;;;;;;9.60;99.90;;;9.97;100.00;100855.94;4958311;28;20013;-85
2023/09/26 06:44:19;;;;;;;;;;;9.70;99.90;;;10.04;100.00;100850.47;4974798;28;19918;-84
2023/09/26 06:46:45;;;;;;;;;;;9.80;99.90;;;10.22;100.00;100858.88;4956529;28;19922;-86
2023/09/26 06:49:10;;;;;;;;;;;9.90;99.90;;;10.32;100.00;100852.16;4975613;28;19918;-83
2023/09/26 06:51:36;;;;;;;;;;;10.00;99.90;;;10.42;100.00;100866.28;4972290;28;19925;-86
2023/09/26 06:54:02;;;;;;;;;;;10.10;99.90;;;10.53;100.00;100862.06;4956101;29;19973;-81
2023/09/26 06:56:28;;;;;;;;;;;10.20;99.90;;;10.64;100.00;100866.88;4953855;28;19922;-85
2023/09/26 06:58:54;;;;;;;;;;;10.30;99.90;;;10.76;100.00;100868.97;4955358;28;19926;-88
2023/09/26 07:01:20;;;;;;;;;;;10.40;99.90;;;10.89;100.00;100873.56;4949778;28;19919;-87
2023/09/26 07:03:46;;;;;;;;;;;10.50;99.90;;;11.01;100.00;100869.09;4963054;28;19925;-87
2023/09/26 07:06:13;;;;;;;;;;;10.60;99.90;;;11.20;100.00;100872.00;4951700;28;20271;-87
2023/09/26 07:08:41;;;;;;;;;;;10.80;99.90;;;11.26;100.00;100892.13;4939922;29;19918;-85
2023/09/26 07:11:07;;;;;;;;;;;10.80;99.90;;;11.25;100.00;100906.81;4955672;28;19924;-85
2023/09/26 07:13:34;;;;;;;;;;;10.90;99.90;;;11.32;100.00;100937.72;4955412;29;19922;-86
2023/09/26 07:16:03;;;;;;;;;;;10.90;99.90;;;11.37;100.00;100974.25;4936549;29;19919;-85
2023/09/26 07:18:33;;;;;;;;;;;11.00;99.90;;;11.64;100.00;101003.38;4938718;29;19926;-83
2023/09/26 07:21:04;;;;;;;;;;;11.10;99.90;;;11.79;100.00;101008.59;4954074;29;19918;-84
2023/09/26 07:23:30;;;;;;;;;;;11.30;99.90;;;11.97;100.00;101001.59;4955692;29;20009;-86
2023/09/26 07:26:17;;;;;;;;;;;11.50;99.90;;;12.01;100.00;101011.88;4942607;29;19937;-85
2023/09/26 07:28:44;;;;;;;;;;;11.60;99.90;;;12.20;100.00;101040.22;4956996;29;19973;-86
2023/09/26 07:31:16;;;;;;;;;;;11.70;99.90;;;12.40;100.00;101036.50;4944227;29;19961;-86
2023/09/26 07:33:43;;;;;;;;;;;11.80;99.90;;;12.54;100.00;101048.22;4942549;29;20023;-86
2023/09/26 07:36:09;;;;;;;;;;;12.00;99.90;;;12.64;100.00;101047.72;4935946;29;20021;-86
2023/09/26 07:38:35;;;;;;;;;;;12.10;99.90;;;12.76;100.00;101081.56;4956059;29;19925;-84
2023/09/26 07:41:01;;;;;;;;;;;12.20;99.90;;;12.89;100.00;101110.75;4953654;28;19919;-86
2023/09/26 07:43:32;;;;;;;;;;;12.30;99.90;;;12.98;100.00;101154.28;4954830;28;20291;-85
2023/09/26 07:46:03;;;;;;;;;;;12.40;99.90;;;13.01;100.00;101183.97;4954512;28;20009;-85
2023/09/26 07:48:29;;;;;;;;;;;12.40;99.90;;;13.09;100.00;101222.91;4955474;28;19921;-85
2023/09/26 07:50:56;;;;;;;;;;;12.50;99.90;;;13.23;100.00;101242.84;4952589;28;19925;-85
2023/09/26 07:53:22;;;;;;;;;;;12.60;99.90;;;13.41;100.00;101278.78;4974197;28;19932;-86
2023/09/26 07:55:48;;;;;;;;;;;12.80;99.90;;;13.51;100.00;101295.59;4972587;28;19926;-86
2023/09/26 07:58:15;;;;;;;;;;;12.90;99.90;;;13.61;100.00;101306.94;4938573;28;19922;-84
2023/09/26 08:00:41;;;;;;;;;;;13.00;99.90;;;13.64;100.00;101311.97;4971447;28;19925;-86
2023/09/26 08:03:07;;;;;;;;;;;13.10;99.90;;;13.83;100.00;101323.03;4975224;28;19918;-86
2023/09/26 08:05:32;;;;;;;;;;;13.20;99.90;;;13.99;100.00;101332.63;4954060;28;19990;-85
2023/09/26 08:07:59;;;;;;;;;;;13.40;99.90;;;14.23;100.00;101365.78;4978969;28;19924;-83
2023/09/26 08:10:24;;;;;;;;;;;13.70;99.90;;;14.51;100.00;101386.44;4976108;28;19918;-82
2023/09/26 08:12:50;;;;;;;;;;;13.90;99.90;;;14.75;100.00;101394.91;4976473;28;20274;-82
2023/09/26 08:15:16;;;;;;;;;;;14.20;99.90;;;15.01;100.00;101415.75;4972871;28;19926;-85
2023/09/26 08:17:41;;;;;;;;;;;14.50;99.90;;;15.23;100.00;101424.38;4970879;28;19918;-82
2023/09/26 08:20:08;;;;;;;;;;;14.80;99.90;;;15.44;100.00;101429.66;4971587;28;19922;-83
2023/09/26 08:22:34;;;;;;;;;;;15.00;99.90;;;15.65;100.00;101433.81;4970670;28;19987;-81
2023/09/26 08:25:00;;;;;;;;;;;15.30;99.90;;;15.88;100.00;101430.34;4971090;28;20518;-83
2023/09/26 08:27:26;;;;;;;;;;;15.50;99.90;;;16.09;100.00;101433.66;4970533;28;20001;-82
2023/09/26 08:29:51;;;;;;;;;;;15.80;99.90;;;16.38;100.00;101434.69;4969606;28;19926;-84
2023/09/26 08:32:17;;;;;;;;;;;16.00;99.90;;;16.74;100.00;101429.22;4970696;28;19976;-84
2023/09/26 08:34:43;;;;;;;;;;;16.30;99.90;;;16.96;100.00;101418.44;4954400;28;20290;-84
2023/09/26 08:37:10;;;;;;;;;;;16.70;99.90;;;17.29;100.00;101440.97;4974141;28;20309;-84
2023/09/26 08:39:35;;;;;;;;;;;16.90;99.90;;;17.59;100.00;101436.31;4974236;28;20366;-84
2023/09/26 08:42:03;;;;;;;;;;;17.20;99.90;;;17.77;100.00;101441.66;4976069;28;19945;-87
2023/09/26 08:44:28;;;;;;;;;;;17.50;99.90;;;18.01;100.00;101443.44;4975511;28;19918;-87
2023/09/26 08:46:54;;;;;;;;;;;17.80;99.90;;;18.35;100.00;101441.63;4976072;28;20382;-87
2023/09/26 08:49:20;;;;;;;;;;;18.10;99.90;;;18.51;100.00;101450.16;4975853;28;19918;-87
2023/09/26 08:51:46;;;;;;;;;;;;;;;18.89;100.00;101447.72;4975388;28;20419;-88
2023/09/26 08:54:12;;;;;;;;;;;;;;;18.67;100.00;101443.78;4975029;28;19993;-88
2023/09/26 08:56:39;;;;;;;;;;;;;;;18.81;100.00;101452.56;4968286;28;19919;-87
2023/09/26 08:59:05;;;;;;;;;;;;;;;19.09;100.00;101453.56;4919291;29;19949;-86
2023/09/26 09:01:31;;;;;;;;;;;;;;;19.32;100.00;101451.66;4974084;28;19914;-85
2023/09/26 09:03:57;;;;;;;;;;;;;;;19.17;100.00;101449.53;4975992;28;20405;-86
2023/09/26 09:06:23;;;;;;;;;;;;;;;19.45;100.00;101449.63;4961409;28;19922;-88
2023/09/26 09:09:04;;;;;;;;;;;;;;;19.23;100.00;101443.00;4973785;28;19957;-89
2023/09/26 09:11:32;;;;;;;;;;;;;;;19.63;100.00;101441.00;4963481;28;19981;-88
2023/09/26 09:13:58;;;;;;;;;;;;;;;19.78;100.00;101442.25;4980858;28;19953;-84
2023/09/26 09:16:24;;;;;;;;;;;;;;;19.94;100.00;101441.34;4968924;28;20393;-88
2023/09/26 09:18:51;;;;;;;;;;;;;;;20.12;100.00;101442.91;4976495;28;19928;-88
2023/09/26 09:21:18;;;;;;;;;;;;;;;20.21;100.00;101440.50;4973819;28;20519;-87
2023/09/26 09:23:48;;;;;;;;;;;;;;;20.20;100.00;101433.31;4961035;28;19918;-91
2023/09/26 09:26:14;;;;;;;;;;;;;;;20.38;100.00;101431.22;4949354;29;19919;-90
2023/09/26 09:28:40;;;;;;;;;;;;;;;20.37;100.00;101424.00;4975417;28;19918;-90
2023/09/26 09:31:06;;;;;;;;;;;;;;;20.55;100.00;101429.16;4961830;28;19918;-91
2023/09/26 09:33:32;;;;;;;;;;;;;;;20.84;100.00;101426.06;4977662;28;19949;-88
2023/09/26 09:35:58;;;;;;;;;;;;;;;20.55;100.00;101426.38;4977489;28;20012;-89
2023/09/26 09:38:26;;;;;;;;;;;;;;;20.88;100.00;101419.97;4981112;28;19917;-87
2023/09/26 09:40:52;;;;;;;;;;;;;;;21.06;100.00;101422.31;4973407;28;20005;-89
2023/09/26 09:43:19;;;;;;;;;;;;;;;21.31;100.00;101417.97;4976042;28;19925;-86
2023/09/26 09:45:47;;;;;;;;;;;;;;;21.84;100.00;101426.22;4975373;28;19918;-85
2023/09/26 09:48:13;;;;;;;;;;;;;;;22.23;100.00;101421.28;4974202;28;20476;-82
2023/09/26 09:50:40;;;;;;;;;;;;;;;22.16;98.54;101423.50;4973768;28;19918;-87
2023/09/26 09:53:07;;;;;;;;;;;;;;;22.56;99.74;101430.19;4971103;28;19917;-82
2023/09/26 09:55:38;;;;;;;;;;;;;;;22.80;92.03;101422.09;4971308;28;19918;-86
2023/09/26 09:58:09;;;;;;;;;;;;;;;23.51;86.45;101415.75;4980561;28;19918;-81
2023/09/26 10:00:36;;;;;;;;;;;;;;;24.24;82.59;101418.94;4971494;28;19941;-83
2023/09/26 10:03:03;;;;;;;;;;;;;;;25.65;73.73;101411.59;4972186;28;19918;-78
2023/09/26 10:05:30;;;;;;;;;;;;;;;26.28;59.98;101403.09;4954161;28;19926;-81
2023/09/26 10:07:58;;;;;;;;;;;;;;;27.82;54.68;101409.59;4970578;28;20770;-83
2023/09/26 10:10:24;;;;;;;;;;;;;;;29.06;49.47;101405.59;4939112;28;20016;-82
2023/09/26 10:12:51;;;;;;;;;;;;;;;29.94;53.21;101424.63;4971596;28;19918;-83
2023/09/26 10:15:17;;;;;;;;;;;;;;;30.84;43.21;101399.63;4932321;28;19919;-79
2023/09/26 10:17:45;;;;;;;;;;;;;;;30.65;42.38;101405.69;4955294;28;19944;-81
2023/09/26 10:20:12;;;;;;;;;;;;;;;31.14;44.37;101408.94;4971982;28;20293;-83
2023/09/26 10:22:41;;;;;;;;;;;;;;;30.94;39.72;101378.72;4955096;28;19922;-86
2023/09/26 10:25:08;;;;;;;;;;;;;;;31.06;42.46;101401.38;4974474;28;20481;-86
2023/09/26 10:27:34;;;;;;;;;;;;;;;31.59;41.58;101401.06;4970198;28;19966;-88
2023/09/26 10:30:01;;;;;;;;;;;;;;;32.31;38.83;101387.97;4972979;28;19918;-83
2023/09/26 10:32:31;;;;;;;;;;;;;;;32.02;37.27;101379.31;4955307;28;19926;-83
2023/09/26 10:34:58;;;;;;;;;;;;;;;32.86;37.80;101392.31;4975572;28;20004;-82
2023/09/26 10:37:28;;;;;;;;;;;;;;;33.06;35.32;101375.63;4946780;28;19970;-79
2023/09/26 10:39:54;;;;;;;;;;;;;;;34.07;33.70;101372.22;4972284;28;19989;-79
2023/09/26 10:42:22;;;;;;;;;;;;;;;34.30;33.52;101377.28;4971425;28;19918;-81
2023/09/26 10:44:51;;;;;;;;;;;;;;;35.23;30.92;101374.34;4954631;28;19918;-84
2023/09/26 10:47:26;;;;;;;;;;;;;;;34.77;32.12;101370.03;4972599;28;20356;-83
2023/09/26 10:49:52;;;;;;;;;;;;;;;34.64;33.90;101385.47;4972370;28;19928;-82
2023/09/26 10:52:19;;;;;;;;;;;;;;;34.12;32.44;101354.16;4968640;28;19922;-81
2023/09/26 10:54:45;;;;;;;;;;;;;;;35.13;31.54;101359.56;4971230;28;19924;-82
2023/09/26 10:57:18;;;;;;;;;;;;;;;35.36;29.63;101343.84;4954830;28;20001;-81
2023/09/26 10:59:44;;;;;;;;;;;;;;;33.81;33.04;101358.53;4971577;28;19930;-83
2023/09/26 11:02:11;;;;;;;;;;;;;;;33.22;33.61;101355.16;4969049;28;19957;-82
2023/09/26 11:04:37;;;;;;;;;;;;;;;33.50;34.11;101360.88;4971043;28;19925;-82
2023/09/26 11:07:05;;;;;;;;;;;;;;;33.82;33.38;101355.34;4947776;28;19972;-82
2023/09/26 11:09:37;;;;;;;;;;;;;;;33.47;33.48;101349.47;4971204;28;19980;-82
2023/09/26 11:12:03;;;;;;;;;;;;;;;32.88;36.05;101365.75;4973973;28;20290;-83
2023/09/26 11:14:30;;;;;;;;;;;;;;;33.24;34.50;101361.25;4974078;28;19922;-82
2023/09/26 11:16:56;;;;;;;;;;;;;;;32.95;32.86;101332.09;4974451;28;19929;-81
2023/09/26 11:19:22;;;;;;;;;;;;;;;32.32;33.71;101338.81;4974503;28;19932;-80
2023/09/26 11:21:48;;;;;;;;;;;;;;;31.84;36.26;101344.81;4936526;28;19922;-81
2023/09/26 11:24:17;;;;;;;;;;;;;;;32.21;36.46;101350.56;4970752;28;19973;-82
2023/09/26 11:26:44;;;;;;;;;;;;;;;32.90;35.28;101346.47;4974987;28;19922;-83